sensor_id;sensor_type;location;lat;lon;timestamp;temperature;humidity
22130;DHT22;11231;50.746;4.272;2023-07-22T00:00:43;16.70;99.90
22130;DHT22;11231;50.746;4.272;2023-07-22T00:03:09;16.70;99.90
22130;DHT22;11231;50.746;4.272;2023-07-22T00:05:35;16.80;99.90
22130;DHT22;11231;50.746;4.272;2023-07-22T00:08:01;16.80;99.90
22130;DHT22;11231;50.746;4.272;2023-07-22T00:10:27;16.80;99.90
22130;DHT22;11231;50.746;4.272;2023-07-22T00:12:53;16.90;99.90
22130;DHT22;11231;50.746;4.272;2023-07-22T00:15:18;16.80;99.90
22130;DHT22;11231;50.746;4.272;2023-07-22T00:17:46;16.80;99.90
22130;DHT22;11231;50.746;4.272;2023-07-22T00:20:12;16.80;99.90
22130;DHT22;11231;50.746;4.272;2023-07-22T00:22:39;16.70;99.90
22130;DHT22;11231;50.746;4.272;2023-07-22T00:25:07;16.70;99.90
22130;DHT22;11231;50.746;4.272;2023-07-22T00:27:36;16.70;99.90
22130;DHT22;11231;50.746;4.272;2023-07-22T00:30:02;16.70;99.90
22130;DHT22;11231;50.746;4.272;2023-07-22T00:32:27;16.60;99.90
22130;DHT22;11231;50.746;4.272;2023-07-22T00:34:53;16.50;99.90
22130;DHT22;11231;50.746;4.272;2023-07-22T00:37:19;16.50;99.90
22130;DHT22;11231;50.746;4.272;2023-07-22T00:39:45;16.50;99.90
22130;DHT22;11231;50.746;4.272;2023-07-22T00:42:10;16.50;99.90
22130;DHT22;11231;50.746;4.272;2023-07-22T00:44:36;16.40;99.90
22130;DHT22;11231;50.746;4.272;2023-07-22T00:47:02;16.30;99.90
22130;DHT22;11231;50.746;4.272;2023-07-22T00:49:28;16.40;99.90
22130;DHT22;11231;50.746;4.272;2023-07-22T00:51:58;16.40;99.90
22130;DHT22;11231;50.746;4.272;2023-07-22T00:54:25;16.40;99.90
22130;DHT22;11231;50.746;4.272;2023-07-22T00:56:51;16.30;99.90
22130;DHT22;11231;50.746;4.272;2023-07-22T00:59:17;16.40;99.90
22130;DHT22;11231;50.746;4.272;2023-07-22T01:01:44;16.20;99.90
22130;DHT22;11231;50.746;4.272;2023-07-22T01:04:09;16.20;99.90
22130;DHT22;11231;50.746;4.272;2023-07-22T01:06:36;16.20;99.90
22130;DHT22;11231;50.746;4.272;2023-07-22T01:09:02;16.20;99.90
22130;DHT22;11231;50.746;4.272;2023-07-22T01:11:28;16.10;99.90
22130;DHT22;11231;50.746;4.272;2023-07-22T01:13:54;16.10;99.90
22130;DHT22;11231;50.746;4.272;2023-07-22T01:16:24;16.10;99.90
22130;DHT22;11231;50.746;4.272;2023-07-22T01:18:52;16.10;99.90
22130;DHT22;11231;50.746;4.272;2023-07-22T01:21:19;16.10;99.90
22130;DHT22;11231;50.746;4.272;2023-07-22T01:23:47;16.20;99.90
22130;DHT22;11231;50.746;4.272;2023-07-22T01:26:13;16.20;99.90
22130;DHT22;11231;50.746;4.272;2023-07-22T01:28:38;16.20;99.90
22130;DHT22;11231;50.746;4.272;2023-07-22T01:31:04;16.30;99.90
22130;DHT22;11231;50.746;4.272;2023-07-22T01:33:31;16.20;99.90
22130;DHT22;11231;50.746;4.272;2023-07-22T01:35:57;16.10;99.90
22130;DHT22;11231;50.746;4.272;2023-07-22T01:38:23;16.10;99.90
22130;DHT22;11231;50.746;4.272;2023-07-22T01:40:49;16.10;99.90
22130;DHT22;11231;50.746;4.272;2023-07-22T01:43:14;16.00;99.90
22130;DHT22;11231;50.746;4.272;2023-07-22T01:45:40;15.90;99.90
22130;DHT22;11231;50.746;4.272;2023-07-22T01:48:06;15.90;99.90
22130;DHT22;11231;50.746;4.272;2023-07-22T01:50:32;15.80;99.90
22130;DHT22;11231;50.746;4.272;2023-07-22T01:52:58;15.80;99.90
22130;DHT22;11231;50.746;4.272;2023-07-22T01:55:23;15.80;99.90
22130;DHT22;11231;50.746;4.272;2023-07-22T01:57:50;15.80;99.90
22130;DHT22;11231;50.746;4.272;2023-07-22T02:00:15;15.70;99.90
22130;DHT22;11231;50.746;4.272;2023-07-22T02:02:43;15.70;99.90
22130;DHT22;11231;50.746;4.272;2023-07-22T02:05:09;15.70;99.90
22130;DHT22;11231;50.746;4.272;2023-07-22T02:07:38;15.60;99.90
22130;DHT22;11231;50.746;4.272;2023-07-22T02:10:05;15.60;99.90
22130;DHT22;11231;50.746;4.272;2023-07-22T02:12:31;15.60;99.90
22130;DHT22;11231;50.746;4.272;2023-07-22T02:14:56;15.60;99.90
22130;DHT22;11231;50.746;4.272;2023-07-22T02:17:22;15.60;99.90
22130;DHT22;11231;50.746;4.272;2023-07-22T02:19:49;15.50;99.90
22130;DHT22;11231;50.746;4.272;2023-07-22T02:22:15;15.50;99.90
22130;DHT22;11231;50.746;4.272;2023-07-22T02:24:41;15.50;99.90
22130;DHT22;11231;50.746;4.272;2023-07-22T02:27:06;15.50;99.90
22130;DHT22;11231;50.746;4.272;2023-07-22T02:29:34;15.50;99.90
22130;DHT22;11231;50.746;4.272;2023-07-22T02:32:00;15.50;99.90
22130;DHT22;11231;50.746;4.272;2023-07-22T02:34:28;15.50;99.90
22130;DHT22;11231;50.746;4.272;2023-07-22T02:36:54;15.40;99.90
22130;DHT22;11231;50.746;4.272;2023-07-22T02:39:20;15.40;99.90
22130;DHT22;11231;50.746;4.272;2023-07-22T02:41:46;15.40;99.90
22130;DHT22;11231;50.746;4.272;2023-07-22T02:44:11;15.50;99.90
22130;DHT22;11231;50.746;4.272;2023-07-22T02:46:39;15.40;99.90
22130;DHT22;11231;50.746;4.272;2023-07-22T02:49:05;15.50;99.90
22130;DHT22;11231;50.746;4.272;2023-07-22T02:51:30;15.50;99.90
22130;DHT22;11231;50.746;4.272;2023-07-22T02:53:56;15.50;99.90
22130;DHT22;11231;50.746;4.272;2023-07-22T02:56:22;15.40;99.90
22130;DHT22;11231;50.746;4.272;2023-07-22T02:58:50;15.40;99.90
22130;DHT22;11231;50.746;4.272;2023-07-22T03:01:16;15.30;99.90
22130;DHT22;11231;50.746;4.272;2023-07-22T03:03:42;15.30;99.90
22130;DHT22;11231;50.746;4.272;2023-07-22T03:06:08;15.20;99.90
22130;DHT22;11231;50.746;4.272;2023-07-22T03:08:35;15.30;99.90
22130;DHT22;11231;50.746;4.272;2023-07-22T03:11:00;15.30;99.90
22130;DHT22;11231;50.746;4.272;2023-07-22T03:13:26;15.30;99.90
22130;DHT22;11231;50.746;4.272;2023-07-22T03:15:55;15.30;99.90
22130;DHT22;11231;50.746;4.272;2023-07-22T03:18:21;15.30;99.90
22130;DHT22;11231;50.746;4.272;2023-07-22T03:20:47;15.40;99.90
22130;DHT22;11231;50.746;4.272;2023-07-22T03:23:13;15.40;99.90
22130;DHT22;11231;50.746;4.272;2023-07-22T03:25:39;15.30;99.90
22130;DHT22;11231;50.746;4.272;2023-07-22T03:28:05;15.40;99.90
22130;DHT22;11231;50.746;4.272;2023-07-22T03:30:32;15.30;99.90
22130;DHT22;11231;50.746;4.272;2023-07-22T03:32:59;15.30;99.90
22130;DHT22;11231;50.746;4.272;2023-07-22T03:35:26;15.40;99.90
22130;DHT22;11231;50.746;4.272;2023-07-22T03:37:52;15.40;99.90
22130;DHT22;11231;50.746;4.272;2023-07-22T03:40:17;15.40;99.90
22130;DHT22;11231;50.746;4.272;2023-07-22T03:42:48;15.40;99.90
22130;DHT22;11231;50.746;4.272;2023-07-22T03:45:14;15.40;99.90
22130;DHT22;11231;50.746;4.272;2023-07-22T03:47:40;15.40;99.90
22130;DHT22;11231;50.746;4.272;2023-07-22T03:50:07;15.50;99.90
22130;DHT22;11231;50.746;4.272;2023-07-22T03:52:32;15.50;99.90
22130;DHT22;11231;50.746;4.272;2023-07-22T03:54:58;15.50;99.90
22130;DHT22;11231;50.746;4.272;2023-07-22T03:57:27;15.60;99.90
22130;DHT22;11231;50.746;4.272;2023-07-22T03:59:54;15.50;99.90
22130;DHT22;11231;50.746;4.272;2023-07-22T04:02:19;15.50;99.90
22130;DHT22;11231;50.746;4.272;2023-07-22T04:04:45;15.50;99.90
22130;DHT22;11231;50.746;4.272;2023-07-22T04:07:11;15.50;99.90
22130;DHT22;11231;50.746;4.272;2023-07-22T04:09:37;15.50;99.90
22130;DHT22;11231;50.746;4.272;2023-07-22T04:12:02;15.50;99.90
22130;DHT22;11231;50.746;4.272;2023-07-22T04:14:29;15.50;99.90
22130;DHT22;11231;50.746;4.272;2023-07-22T04:16:54;15.40;99.90
22130;DHT22;11231;50.746;4.272;2023-07-22T04:19:20;15.40;99.90
22130;DHT22;11231;50.746;4.272;2023-07-22T04:21:46;15.30;99.90
22130;DHT22;11231;50.746;4.272;2023-07-22T04:24:12;15.40;99.90
22130;DHT22;11231;50.746;4.272;2023-07-22T04:26:40;15.30;99.90
22130;DHT22;11231;50.746;4.272;2023-07-22T04:29:05;15.30;99.90
22130;DHT22;11231;50.746;4.272;2023-07-22T04:31:33;15.30;99.90
22130;DHT22;11231;50.746;4.272;2023-07-22T04:33:59;15.30;99.90
22130;DHT22;11231;50.746;4.272;2023-07-22T04:36:25;15.40;99.90
22130;DHT22;11231;50.746;4.272;2023-07-22T04:38:51;15.40;99.90
22130;DHT22;11231;50.746;4.272;2023-07-22T04:41:16;15.40;99.90
22130;DHT22;11231;50.746;4.272;2023-07-22T04:43:42;15.50;99.90
22130;DHT22;11231;50.746;4.272;2023-07-22T04:46:08;15.50;99.90
22130;DHT22;11231;50.746;4.272;2023-07-22T04:48:34;15.50;99.90
22130;DHT22;11231;50.746;4.272;2023-07-22T04:51:00;15.60;99.90
22130;DHT22;11231;50.746;4.272;2023-07-22T04:53:26;15.60;99.90
22130;DHT22;11231;50.746;4.272;2023-07-22T04:55:51;15.70;99.90
22130;DHT22;11231;50.746;4.272;2023-07-22T04:58:17;15.70;99.90
22130;DHT22;11231;50.746;4.272;2023-07-22T05:00:43;15.70;99.90
22130;DHT22;11231;50.746;4.272;2023-07-22T05:03:08;15.90;99.90
22130;DHT22;11231;50.746;4.272;2023-07-22T05:05:34;15.90;99.90
22130;DHT22;11231;50.746;4.272;2023-07-22T05:08:01;16.00;99.90
22130;DHT22;11231;50.746;4.272;2023-07-22T05:10:27;16.30;99.90
22130;DHT22;11231;50.746;4.272;2023-07-22T05:12:54;16.40;99.90
22130;DHT22;11231;50.746;4.272;2023-07-22T05:15:20;16.60;99.90
22130;DHT22;11231;50.746;4.272;2023-07-22T05:17:46;16.70;99.90
22130;DHT22;11231;50.746;4.272;2023-07-22T05:20:12;17.10;99.90
22130;DHT22;11231;50.746;4.272;2023-07-22T05:22:41;17.30;99.90
22130;DHT22;11231;50.746;4.272;2023-07-22T05:25:07;17.30;99.90
22130;DHT22;11231;50.746;4.272;2023-07-22T05:27:33;17.50;99.90
22130;DHT22;11231;50.746;4.272;2023-07-22T05:29:59;18.00;99.90
22130;DHT22;11231;50.746;4.272;2023-07-22T05:32:25;18.50;99.90
22130;DHT22;11231;50.746;4.272;2023-07-22T05:34:51;19.30;99.90
22130;DHT22;11231;50.746;4.272;2023-07-22T05:37:17;19.90;99.90
22130;DHT22;11231;50.746;4.272;2023-07-22T05:39:42;20.50;99.90
22130;DHT22;11231;50.746;4.272;2023-07-22T05:42:08;20.30;99.90
22130;DHT22;11231;50.746;4.272;2023-07-22T05:44:34;19.70;99.90
22130;DHT22;11231;50.746;4.272;2023-07-22T05:47:00;19.30;99.90
22130;DHT22;11231;50.746;4.272;2023-07-22T05:49:25;19.00;99.90
22130;DHT22;11231;50.746;4.272;2023-07-22T05:51:51;18.80;99.90
22130;DHT22;11231;50.746;4.272;2023-07-22T05:54:17;18.80;99.90
22130;DHT22;11231;50.746;4.272;2023-07-22T05:56:43;18.80;99.90
22130;DHT22;11231;50.746;4.272;2023-07-22T05:59:08;18.80;99.90
22130;DHT22;11231;50.746;4.272;2023-07-22T06:01:34;18.60;99.90
22130;DHT22;11231;50.746;4.272;2023-07-22T06:04:00;18.50;99.90
22130;DHT22;11231;50.746;4.272;2023-07-22T06:06:27;18.40;99.90
22130;DHT22;11231;50.746;4.272;2023-07-22T06:08:53;18.40;99.90
22130;DHT22;11231;50.746;4.272;2023-07-22T06:11:19;18.50;99.90
22130;DHT22;11231;50.746;4.272;2023-07-22T06:13:44;18.40;99.90
22130;DHT22;11231;50.746;4.272;2023-07-22T06:16:10;18.30;99.90
22130;DHT22;11231;50.746;4.272;2023-07-22T06:18:36;18.40;99.90
22130;DHT22;11231;50.746;4.272;2023-07-22T06:21:01;18.50;99.90
22130;DHT22;11231;50.746;4.272;2023-07-22T06:23:27;18.60;99.90
22130;DHT22;11231;50.746;4.272;2023-07-22T06:25:53;18.50;99.90
22130;DHT22;11231;50.746;4.272;2023-07-22T06:28:19;18.40;99.90
22130;DHT22;11231;50.746;4.272;2023-07-22T06:30:44;18.30;99.90
22130;DHT22;11231;50.746;4.272;2023-07-22T06:33:10;18.40;99.90
22130;DHT22;11231;50.746;4.272;2023-07-22T06:35:36;18.50;99.90
22130;DHT22;11231;50.746;4.272;2023-07-22T06:38:01;18.70;99.90
22130;DHT22;11231;50.746;4.272;2023-07-22T06:40:27;18.80;99.90
22130;DHT22;11231;50.746;4.272;2023-07-22T06:42:53;18.70;99.90
22130;DHT22;11231;50.746;4.272;2023-07-22T06:45:18;18.60;99.90
22130;DHT22;11231;50.746;4.272;2023-07-22T06:47:44;18.70;99.90
22130;DHT22;11231;50.746;4.272;2023-07-22T06:50:10;18.50;99.90
22130;DHT22;11231;50.746;4.272;2023-07-22T06:52:36;18.60;99.90
22130;DHT22;11231;50.746;4.272;2023-07-22T06:55:02;18.60;99.90
22130;DHT22;11231;50.746;4.272;2023-07-22T06:57:29;18.60;99.90
22130;DHT22;11231;50.746;4.272;2023-07-22T06:59:55;18.70;99.90
22130;DHT22;11231;50.746;4.272;2023-07-22T07:02:21;19.10;99.90
22130;DHT22;11231;50.746;4.272;2023-07-22T07:04:48;19.60;99.90
22130;DHT22;11231;50.746;4.272;2023-07-22T07:07:14;19.70;99.90
22130;DHT22;11231;50.746;4.272;2023-07-22T07:09:40;19.80;99.90
22130;DHT22;11231;50.746;4.272;2023-07-22T07:12:06;19.70;99.90
22130;DHT22;11231;50.746;4.272;2023-07-22T07:14:33;19.50;99.90
22130;DHT22;11231;50.746;4.272;2023-07-22T07:16:59;19.50;99.90
22130;DHT22;11231;50.746;4.272;2023-07-22T07:19:26;19.70;99.90
22130;DHT22;11231;50.746;4.272;2023-07-22T07:21:52;19.80;99.90
22130;DHT22;11231;50.746;4.272;2023-07-22T07:24:18;20.50;99.90
22130;DHT22;11231;50.746;4.272;2023-07-22T07:26:43;21.50;99.90
22130;DHT22;11231;50.746;4.272;2023-07-22T07:29:10;21.60;99.90
22130;DHT22;11231;50.746;4.272;2023-07-22T07:31:36;21.90;99.90
22130;DHT22;11231;50.746;4.272;2023-07-22T07:34:02;21.90;99.90
22130;DHT22;11231;50.746;4.272;2023-07-22T07:36:28;22.10;99.90
22130;DHT22;11231;50.746;4.272;2023-07-22T07:38:53;21.70;99.90
22130;DHT22;11231;50.746;4.272;2023-07-22T07:41:19;21.50;99.90
22130;DHT22;11231;50.746;4.272;2023-07-22T07:43:45;21.50;99.90
22130;DHT22;11231;50.746;4.272;2023-07-22T07:46:18;21.60;99.90
22130;DHT22;11231;50.746;4.272;2023-07-22T07:48:45;21.70;99.90
22130;DHT22;11231;50.746;4.272;2023-07-22T07:51:12;22.00;99.90
22130;DHT22;11231;50.746;4.272;2023-07-22T07:53:38;22.00;99.90
22130;DHT22;11231;50.746;4.272;2023-07-22T07:56:04;22.80;99.90
22130;DHT22;11231;50.746;4.272;2023-07-22T07:58:30;23.60;99.90
22130;DHT22;11231;50.746;4.272;2023-07-22T08:00:56;24.00;99.90
22130;DHT22;11231;50.746;4.272;2023-07-22T08:03:22;23.80;99.90
22130;DHT22;11231;50.746;4.272;2023-07-22T08:05:47;23.30;99.90
22130;DHT22;11231;50.746;4.272;2023-07-22T08:08:13;22.70;99.90
22130;DHT22;11231;50.746;4.272;2023-07-22T08:10:39;22.40;99.90
22130;DHT22;11231;50.746;4.272;2023-07-22T08:13:05;22.60;99.90
22130;DHT22;11231;50.746;4.272;2023-07-22T08:15:30;22.70;99.90
22130;DHT22;11231;50.746;4.272;2023-07-22T08:17:56;22.90;99.90
22130;DHT22;11231;50.746;4.272;2023-07-22T08:20:22;23.50;99.90
22130;DHT22;11231;50.746;4.272;2023-07-22T08:22:48;23.70;99.90
22130;DHT22;11231;50.746;4.272;2023-07-22T08:25:13;24.00;99.90
22130;DHT22;11231;50.746;4.272;2023-07-22T08:27:39;24.30;99.90
22130;DHT22;11231;50.746;4.272;2023-07-22T08:30:05;24.40;99.90
22130;DHT22;11231;50.746;4.272;2023-07-22T08:32:31;24.70;99.90
22130;DHT22;11231;50.746;4.272;2023-07-22T08:34:57;24.80;99.90
22130;DHT22;11231;50.746;4.272;2023-07-22T08:37:23;24.90;99.90
22130;DHT22;11231;50.746;4.272;2023-07-22T08:39:49;25.40;99.90
22130;DHT22;11231;50.746;4.272;2023-07-22T08:42:18;26.70;99.90
22130;DHT22;11231;50.746;4.272;2023-07-22T08:44:48;27.70;99.90
22130;DHT22;11231;50.746;4.272;2023-07-22T08:47:16;27.50;99.90
22130;DHT22;11231;50.746;4.272;2023-07-22T08:49:46;27.40;99.90
22130;DHT22;11231;50.746;4.272;2023-07-22T08:52:15;27.70;99.90
22130;DHT22;11231;50.746;4.272;2023-07-22T08:54:41;27.30;99.90
22130;DHT22;11231;50.746;4.272;2023-07-22T08:57:09;27.50;99.90
22130;DHT22;11231;50.746;4.272;2023-07-22T08:59:36;29.10;99.90
22130;DHT22;11231;50.746;4.272;2023-07-22T09:02:03;30.80;99.90
22130;DHT22;11231;50.746;4.272;2023-07-22T09:04:29;31.00;99.90
22130;DHT22;11231;50.746;4.272;2023-07-22T09:06:55;32.40;98.10
22130;DHT22;11231;50.746;4.272;2023-07-22T09:09:21;33.20;94.60
22130;DHT22;11231;50.746;4.272;2023-07-22T09:11:48;34.00;91.40
22130;DHT22;11231;50.746;4.272;2023-07-22T09:14:18;32.90;86.40
22130;DHT22;11231;50.746;4.272;2023-07-22T09:16:44;31.80;90.10
22130;DHT22;11231;50.746;4.272;2023-07-22T09:19:10;31.50;89.10
22130;DHT22;11231;50.746;4.272;2023-07-22T09:21:35;32.10;90.10
22130;DHT22;11231;50.746;4.272;2023-07-22T09:24:01;31.50;87.20
22130;DHT22;11231;50.746;4.272;2023-07-22T09:26:32;31.50;85.60
22130;DHT22;11231;50.746;4.272;2023-07-22T09:28:58;32.60;84.70
22130;DHT22;11231;50.746;4.272;2023-07-22T09:31:27;33.40;83.60
22130;DHT22;11231;50.746;4.272;2023-07-22T09:34:09;33.20;79.80
22130;DHT22;11231;50.746;4.272;2023-07-22T09:36:52;34.20;79.70
22130;DHT22;11231;50.746;4.272;2023-07-22T09:39:18;34.70;76.80
22130;DHT22;11231;50.746;4.272;2023-07-22T09:41:44;34.20;70.30
22130;DHT22;11231;50.746;4.272;2023-07-22T09:44:10;32.40;72.30
22130;DHT22;11231;50.746;4.272;2023-07-22T09:46:37;31.40;75.50
22130;DHT22;11231;50.746;4.272;2023-07-22T09:49:05;30.90;76.60
22130;DHT22;11231;50.746;4.272;2023-07-22T09:51:38;30.30;78.30
22130;DHT22;11231;50.746;4.272;2023-07-22T09:54:05;30.70;78.60
22130;DHT22;11231;50.746;4.272;2023-07-22T09:56:32;31.60;75.20
22130;DHT22;11231;50.746;4.272;2023-07-22T09:59:04;31.20;73.30
22130;DHT22;11231;50.746;4.272;2023-07-22T10:01:33;31.80;72.00
22130;DHT22;11231;50.746;4.272;2023-07-22T10:04:00;30.70;73.60
22130;DHT22;11231;50.746;4.272;2023-07-22T10:06:29;31.70;74.40
22130;DHT22;11231;50.746;4.272;2023-07-22T10:09:04;32.30;69.70
22130;DHT22;11231;50.746;4.272;2023-07-22T10:11:34;32.20;67.70
22130;DHT22;11231;50.746;4.272;2023-07-22T10:14:04;33.10;67.40
22130;DHT22;11231;50.746;4.272;2023-07-22T10:16:30;33.50;63.00
22130;DHT22;11231;50.746;4.272;2023-07-22T10:18:57;34.00;65.20
22130;DHT22;11231;50.746;4.272;2023-07-22T10:21:28;34.10;62.60
22130;DHT22;11231;50.746;4.272;2023-07-22T10:23:54;33.60;62.80
22130;DHT22;11231;50.746;4.272;2023-07-22T10:26:20;33.90;61.50
22130;DHT22;11231;50.746;4.272;2023-07-22T10:28:47;33.50;62.00
22130;DHT22;11231;50.746;4.272;2023-07-22T10:31:13;33.40;62.60
22130;DHT22;11231;50.746;4.272;2023-07-22T10:33:39;32.10;62.40
22130;DHT22;11231;50.746;4.272;2023-07-22T10:38:31;31.00;66.30
22130;DHT22;11231;50.746;4.272;2023-07-22T10:40:57;31.30;66.60
22130;DHT22;11231;50.746;4.272;2023-07-22T10:45:56;32.60;65.90
22130;DHT22;11231;50.746;4.272;2023-07-22T10:48:27;31.50;67.90
22130;DHT22;11231;50.746;4.272;2023-07-22T10:51:05;30.50;68.50
22130;DHT22;11231;50.746;4.272;2023-07-22T10:53:31;30.90;67.70
22130;DHT22;11231;50.746;4.272;2023-07-22T10:56:26;31.40;67.20
22130;DHT22;11231;50.746;4.272;2023-07-22T11:12:14;30.50;67.10
22130;DHT22;11231;50.746;4.272;2023-07-22T11:14:51;30.20;68.70
22130;DHT22;11231;50.746;4.272;2023-07-22T11:17:21;31.60;70.30
22130;DHT22;11231;50.746;4.272;2023-07-22T11:19:52;33.20;67.30
22130;DHT22;11231;50.746;4.272;2023-07-22T11:22:18;31.90;63.10
22130;DHT22;11231;50.746;4.272;2023-07-22T11:24:44;30.90;67.00
22130;DHT22;11231;50.746;4.272;2023-07-22T11:27:10;31.00;65.20
22130;DHT22;11231;50.746;4.272;2023-07-22T11:29:36;31.10;66.00
22130;DHT22;11231;50.746;4.272;2023-07-22T11:32:02;30.70;66.70
22130;DHT22;11231;50.746;4.272;2023-07-22T11:34:28;30.40;64.50
22130;DHT22;11231;50.746;4.272;2023-07-22T11:36:56;30.30;65.30
22130;DHT22;11231;50.746;4.272;2023-07-22T11:39:24;30.20;65.70
22130;DHT22;11231;50.746;4.272;2023-07-22T11:41:51;29.60;69.60
22130;DHT22;11231;50.746;4.272;2023-07-22T11:44:21;30.70;67.10
22130;DHT22;11231;50.746;4.272;2023-07-22T11:49:25;31.40;67.50
22130;DHT22;11231;50.746;4.272;2023-07-22T11:51:57;31.70;66.20
22130;DHT22;11231;50.746;4.272;2023-07-22T11:54:23;30.50;67.20
22130;DHT22;11231;50.746;4.272;2023-07-22T11:56:49;30.20;66.80
22130;DHT22;11231;50.746;4.272;2023-07-22T11:59:15;30.80;65.40
22130;DHT22;11231;50.746;4.272;2023-07-22T12:01:44;31.50;62.60
22130;DHT22;11231;50.746;4.272;2023-07-22T12:04:11;32.30;63.30
22130;DHT22;11231;50.746;4.272;2023-07-22T12:06:37;33.10;61.90
22130;DHT22;11231;50.746;4.272;2023-07-22T12:09:03;32.00;61.30
22130;DHT22;11231;50.746;4.272;2023-07-22T12:11:32;30.70;63.00
22130;DHT22;11231;50.746;4.272;2023-07-22T12:14:07;29.90;64.70
22130;DHT22;11231;50.746;4.272;2023-07-22T12:16:35;30.00;65.40
22130;DHT22;11231;50.746;4.272;2023-07-22T12:19:02;29.90;65.50
22130;DHT22;11231;50.746;4.272;2023-07-22T12:21:28;29.40;69.20
22130;DHT22;11231;50.746;4.272;2023-07-22T12:23:53;29.10;69.60
22130;DHT22;11231;50.746;4.272;2023-07-22T12:26:20;28.90;68.50
22130;DHT22;11231;50.746;4.272;2023-07-22T12:28:45;28.60;70.80
22130;DHT22;11231;50.746;4.272;2023-07-22T12:31:11;28.40;71.40
22130;DHT22;11231;50.746;4.272;2023-07-22T12:33:37;28.10;70.10
22130;DHT22;11231;50.746;4.272;2023-07-22T12:36:04;27.80;70.10
22130;DHT22;11231;50.746;4.272;2023-07-22T12:38:30;27.40;69.60
22130;DHT22;11231;50.746;4.272;2023-07-22T12:40:56;27.50;71.70
22130;DHT22;11231;50.746;4.272;2023-07-22T12:43:22;27.60;71.10
22130;DHT22;11231;50.746;4.272;2023-07-22T12:45:48;27.60;68.70
22130;DHT22;11231;50.746;4.272;2023-07-22T12:48:14;27.30;69.00
22130;DHT22;11231;50.746;4.272;2023-07-22T12:50:40;27.30;74.30
22130;DHT22;11231;50.746;4.272;2023-07-22T12:53:05;27.10;69.10
22130;DHT22;11231;50.746;4.272;2023-07-22T12:55:31;27.00;70.70
22130;DHT22;11231;50.746;4.272;2023-07-22T12:57:57;27.30;72.70
22130;DHT22;11231;50.746;4.272;2023-07-22T13:00:23;27.60;73.30
22130;DHT22;11231;50.746;4.272;2023-07-22T13:02:48;27.70;69.90
22130;DHT22;11231;50.746;4.272;2023-07-22T13:05:14;27.50;69.00
22130;DHT22;11231;50.746;4.272;2023-07-22T13:07:40;27.30;71.80
22130;DHT22;11231;50.746;4.272;2023-07-22T13:10:06;27.10;71.30
22130;DHT22;11231;50.746;4.272;2023-07-22T13:12:38;27.00;72.30
22130;DHT22;11231;50.746;4.272;2023-07-22T13:15:04;27.10;72.80
22130;DHT22;11231;50.746;4.272;2023-07-22T13:17:30;27.40;73.60
22130;DHT22;11231;50.746;4.272;2023-07-22T13:19:56;27.40;72.90
22130;DHT22;11231;50.746;4.272;2023-07-22T13:22:22;27.20;72.90
22130;DHT22;11231;50.746;4.272;2023-07-22T13:24:48;27.00;73.70
22130;DHT22;11231;50.746;4.272;2023-07-22T13:27:14;27.30;74.70
22130;DHT22;11231;50.746;4.272;2023-07-22T13:29:39;27.40;72.60
22130;DHT22;11231;50.746;4.272;2023-07-22T13:32:05;27.30;74.60
22130;DHT22;11231;50.746;4.272;2023-07-22T13:34:31;27.40;74.90
22130;DHT22;11231;50.746;4.272;2023-07-22T13:36:57;27.40;73.30
22130;DHT22;11231;50.746;4.272;2023-07-22T13:39:23;27.10;76.50
22130;DHT22;11231;50.746;4.272;2023-07-22T13:41:49;27.00;74.40
22130;DHT22;11231;50.746;4.272;2023-07-22T13:44:16;26.60;76.10
22130;DHT22;11231;50.746;4.272;2023-07-22T13:46:42;26.50;76.40
22130;DHT22;11231;50.746;4.272;2023-07-22T13:49:07;26.30;76.80
22130;DHT22;11231;50.746;4.272;2023-07-22T13:51:33;26.10;77.00
22130;DHT22;11231;50.746;4.272;2023-07-22T13:53:59;25.60;77.70
22130;DHT22;11231;50.746;4.272;2023-07-22T13:56:25;25.20;78.40
22130;DHT22;11231;50.746;4.272;2023-07-22T13:58:51;25.00;79.80
22130;DHT22;11231;50.746;4.272;2023-07-22T14:01:17;25.00;80.90
22130;DHT22;11231;50.746;4.272;2023-07-22T14:03:43;24.80;81.60
22130;DHT22;11231;50.746;4.272;2023-07-22T14:06:09;24.50;82.70
22130;DHT22;11231;50.746;4.272;2023-07-22T14:08:35;24.40;84.40
22130;DHT22;11231;50.746;4.272;2023-07-22T14:11:00;24.10;84.60
22130;DHT22;11231;50.746;4.272;2023-07-22T14:13:26;24.20;88.60
22130;DHT22;11231;50.746;4.272;2023-07-22T14:15:52;24.30;88.30
22130;DHT22;11231;50.746;4.272;2023-07-22T14:18:19;24.40;87.00
22130;DHT22;11231;50.746;4.272;2023-07-22T14:20:44;24.40;86.80
22130;DHT22;11231;50.746;4.272;2023-07-22T14:23:14;24.40;86.50
22130;DHT22;11231;50.746;4.272;2023-07-22T14:25:40;24.50;90.20
22130;DHT22;11231;50.746;4.272;2023-07-22T14:28:06;24.70;87.80
22130;DHT22;11231;50.746;4.272;2023-07-22T14:30:32;24.90;86.50
22130;DHT22;11231;50.746;4.272;2023-07-22T14:32:57;25.00;87.10
22130;DHT22;11231;50.746;4.272;2023-07-22T14:35:23;25.10;90.00
22130;DHT22;11231;50.746;4.272;2023-07-22T14:37:49;25.40;87.80
22130;DHT22;11231;50.746;4.272;2023-07-22T14:40:14;25.30;87.80
22130;DHT22;11231;50.746;4.272;2023-07-22T14:42:40;25.70;89.30
22130;DHT22;11231;50.746;4.272;2023-07-22T14:45:06;25.20;90.20
22130;DHT22;11231;50.746;4.272;2023-07-22T14:47:32;25.10;90.80
22130;DHT22;11231;50.746;4.272;2023-07-22T14:49:58;25.00;90.60
22130;DHT22;11231;50.746;4.272;2023-07-22T14:52:24;25.00;90.20
22130;DHT22;11231;50.746;4.272;2023-07-22T14:54:50;25.30;90.90
22130;DHT22;11231;50.746;4.272;2023-07-22T14:57:17;25.40;89.70
22130;DHT22;11231;50.746;4.272;2023-07-22T14:59:42;25.20;89.80
22130;DHT22;11231;50.746;4.272;2023-07-22T15:02:08;25.40;89.80
22130;DHT22;11231;50.746;4.272;2023-07-22T15:04:34;25.70;91.30
22130;DHT22;11231;50.746;4.272;2023-07-22T15:07:00;25.60;89.90
22130;DHT22;11231;50.746;4.272;2023-07-22T15:09:26;25.80;88.10
22130;DHT22;11231;50.746;4.272;2023-07-22T15:11:51;25.50;89.10
22130;DHT22;11231;50.746;4.272;2023-07-22T15:14:18;25.70;90.20
22130;DHT22;11231;50.746;4.272;2023-07-22T15:16:44;25.80;90.20
22130;DHT22;11231;50.746;4.272;2023-07-22T15:19:09;25.90;90.10
22130;DHT22;11231;50.746;4.272;2023-07-22T15:21:35;25.90;89.70
22130;DHT22;11231;50.746;4.272;2023-07-22T15:24:01;26.00;89.20
22130;DHT22;11231;50.746;4.272;2023-07-22T15:26:27;25.90;88.40
22130;DHT22;11231;50.746;4.272;2023-07-22T15:28:53;25.70;90.20
22130;DHT22;11231;50.746;4.272;2023-07-22T15:31:19;25.50;88.70
22130;DHT22;11231;50.746;4.272;2023-07-22T15:33:45;25.40;88.40
22130;DHT22;11231;50.746;4.272;2023-07-22T15:36:11;25.40;89.60
22130;DHT22;11231;50.746;4.272;2023-07-22T15:38:36;25.10;89.10
22130;DHT22;11231;50.746;4.272;2023-07-22T15:41:02;25.20;90.30
22130;DHT22;11231;50.746;4.272;2023-07-22T15:43:28;25.20;90.30
22130;DHT22;11231;50.746;4.272;2023-07-22T15:45:54;25.20;89.70